createdAt,value
2023-04-16T00:00:20.946Z,22.00
2023-04-16T00:02:53.235Z,25.00
2023-04-16T00:05:26.189Z,29.10
2023-04-16T00:07:57.496Z,29.70
2023-04-16T00:10:29.999Z,28.75
2023-04-16T00:13:03.443Z,25.70
2023-04-16T00:15:34.744Z,25.40
2023-04-16T00:18:06.601Z,23.02
2023-04-16T00:20:38.778Z,23.85
2023-04-16T00:23:11.360Z,25.55
2023-04-16T00:25:43.333Z,22.95
2023-04-16T00:30:46.260Z,20.15
2023-04-16T00:33:19.838Z,23.70
2023-04-16T00:35:51.896Z,25.08
2023-04-16T00:38:25.264Z,25.92
2023-04-16T00:40:56.546Z,26.40
2023-04-16T00:43:30.081Z,26.35
2023-04-16T00:46:02.767Z,25.83
2023-04-16T00:48:34.924Z,25.05
2023-04-16T00:51:11.651Z,24.27
2023-04-16T00:53:44.412Z,21.88
2023-04-16T00:56:17.872Z,21.73
2023-04-16T00:58:50.302Z,19.05
2023-04-16T01:01:21.673Z,17.75
2023-04-16T01:03:54.559Z,16.13
2023-04-16T01:06:27.143Z,16.45
2023-04-16T01:08:59.898Z,15.70
2023-04-16T01:11:32.647Z,13.73
2023-04-16T01:14:03.747Z,16.23
2023-04-16T01:16:35.455Z,15.93
2023-04-16T01:19:07.847Z,17.45
2023-04-16T01:21:39.953Z,16.58
2023-04-16T01:24:11.854Z,15.15
2023-04-16T01:26:44.565Z,17.17
2023-04-16T01:29:14.998Z,16.55
2023-04-16T01:31:48.362Z,19.10
2023-04-16T01:34:31.796Z,21.85
2023-04-16T01:37:03.671Z,21.85
2023-04-16T01:39:34.793Z,22.50
2023-04-16T01:42:07.533Z,23.20
2023-04-16T01:44:38.719Z,22.83
2023-04-16T01:47:10.445Z,23.13
2023-04-16T01:49:42.437Z,27.70
2023-04-16T01:52:15.144Z,27.23
2023-04-16T01:57:19.569Z,26.00
2023-04-16T01:59:51.497Z,24.85
2023-04-16T02:02:28.185Z,23.73
2023-04-16T02:05:00.817Z,23.90
2023-04-16T02:07:34.409Z,21.98
2023-04-16T02:10:07.016Z,18.83
2023-04-16T02:12:38.978Z,19.20
2023-04-16T02:15:11.719Z,20.42
2023-04-16T02:17:44.076Z,19.05
2023-04-16T02:20:18.487Z,18.42
2023-04-16T02:22:58.552Z,18.55
2023-04-16T02:25:31.593Z,20.20
2023-04-16T02:28:03.677Z,19.88
2023-04-16T02:30:41.711Z,19.58
2023-04-16T02:33:15.480Z,21.02
2023-04-16T02:35:59.712Z,20.92
2023-04-16T02:38:30.852Z,23.23
2023-04-16T02:43:36.780Z,25.60
2023-04-16T02:46:08.853Z,28.65
2023-04-16T02:48:39.030Z,27.10
2023-04-16T02:51:07.996Z,24.08
2023-04-16T02:53:37.754Z,24.42
2023-04-16T02:56:07.488Z,22.83
2023-04-16T02:58:37.258Z,22.48
2023-04-16T03:01:06.916Z,21.77
2023-04-16T03:03:35.950Z,21.98
2023-04-16T03:06:05.145Z,19.73
2023-04-16T03:08:34.672Z,19.13
2023-04-16T03:11:03.833Z,18.83
2023-04-16T03:13:33.330Z,17.80
2023-04-16T03:16:02.735Z,16.30
2023-04-16T03:18:31.723Z,16.58
2023-04-16T03:21:00.969Z,16.02
2023-04-16T03:23:30.080Z,16.75
2023-04-16T03:25:59.531Z,18.55
2023-04-16T03:28:29.156Z,17.58
2023-04-16T03:30:58.408Z,18.95
2023-04-16T03:33:28.202Z,17.83
2023-04-16T03:35:58.702Z,19.52
2023-04-16T03:38:31.764Z,19.23
2023-04-16T03:41:01.369Z,18.95
2023-04-16T03:43:32.574Z,20.02
2023-04-16T03:46:01.922Z,16.40
2023-04-16T03:48:31.023Z,17.08
2023-04-16T03:51:00.857Z,17.33
2023-04-16T03:53:30.907Z,16.08
2023-04-16T03:56:00.495Z,15.48
2023-04-16T03:58:29.871Z,15.90
2023-04-16T04:00:59.459Z,15.10
2023-04-16T04:03:29.145Z,16.05
2023-04-16T04:05:58.818Z,16.42
2023-04-16T04:11:00.262Z,14.73
2023-04-16T04:13:30.033Z,14.45
2023-04-16T04:16:00.347Z,15.05
2023-04-16T04:18:30.390Z,14.00
2023-04-16T04:21:01.540Z,14.50
2023-04-16T04:23:32.202Z,14.80
2023-04-16T04:26:04.831Z,14.38
2023-04-16T04:28:34.819Z,14.55
2023-04-16T04:31:04.264Z,14.40
2023-04-16T04:33:33.485Z,14.77
2023-04-16T04:36:02.825Z,15.68
2023-04-16T04:38:33.456Z,15.13
2023-04-16T04:41:02.465Z,14.45
2023-04-16T04:43:35.573Z,21.17
2023-04-16T04:46:04.885Z,16.17
2023-04-16T04:48:34.689Z,14.35
2023-04-16T04:51:05.511Z,14.98
2023-04-16T04:53:35.120Z,15.32
2023-04-16T04:56:12.248Z,14.93
2023-04-16T04:58:43.411Z,15.00
2023-04-16T05:01:12.670Z,15.13
2023-04-16T05:03:42.108Z,18.23
2023-04-16T05:06:11.833Z,14.25
2023-04-16T05:08:40.781Z,15.07
2023-04-16T05:11:09.994Z,14.35
2023-04-16T05:13:39.116Z,13.48
2023-04-16T05:16:08.657Z,14.90
2023-04-16T05:18:38.389Z,14.52
2023-04-16T05:21:07.395Z,13.95
2023-04-16T05:23:36.416Z,16.75
2023-04-16T05:26:06.163Z,14.30
2023-04-16T05:28:35.495Z,12.85
2023-04-16T05:31:04.709Z,12.57
2023-04-16T05:33:34.711Z,13.02
2023-04-16T05:36:03.638Z,12.90
2023-04-16T05:38:33.042Z,13.70
2023-04-16T05:41:02.180Z,12.32
2023-04-16T05:43:31.581Z,13.65
2023-04-16T05:46:00.825Z,13.15
2023-04-16T05:48:29.898Z,13.88
2023-04-16T05:50:59.666Z,13.68
2023-04-16T05:53:28.871Z,13.00
2023-04-16T05:55:57.977Z,12.45
2023-04-16T05:58:27.306Z,13.43
2023-04-16T06:00:56.919Z,12.45
2023-04-16T06:03:26.109Z,12.63
2023-04-16T06:05:55.648Z,12.70
2023-04-16T06:08:25.426Z,11.85
2023-04-16T06:10:54.879Z,13.32
2023-04-16T06:13:24.045Z,12.02
2023-04-16T06:15:54.031Z,11.82
2023-04-16T06:22:45.992Z,11.00
2023-04-16T06:25:16.819Z,14.60
2023-04-16T06:27:47.732Z,13.15
2023-04-16T06:30:17.776Z,13.23
2023-04-16T06:32:47.659Z,13.15
2023-04-16T06:35:17.030Z,11.40
2023-04-16T06:37:46.817Z,14.35
2023-04-16T06:40:17.656Z,13.63
2023-04-16T06:42:46.942Z,13.20
2023-04-16T06:45:16.685Z,13.07
2023-04-16T06:47:45.755Z,12.05
2023-04-16T06:50:14.968Z,12.90
2023-04-16T06:52:44.224Z,12.60
2023-04-16T06:55:14.470Z,12.82
2023-04-16T06:57:43.798Z,11.25
2023-04-16T07:00:13.514Z,11.55
2023-04-16T07:02:42.985Z,11.57
2023-04-16T07:05:12.432Z,11.85
2023-04-16T07:07:41.548Z,11.48
2023-04-16T07:10:11.366Z,11.45
2023-04-16T07:12:40.680Z,12.30
2023-04-16T07:19:34.100Z,11.98
2023-04-16T07:22:03.874Z,11.40
2023-04-16T07:24:33.589Z,10.75
2023-04-16T07:27:03.119Z,11.05
2023-04-16T07:29:32.091Z,11.23
2023-04-16T07:32:02.069Z,11.02
2023-04-16T07:34:31.760Z,11.07
2023-04-16T07:37:00.670Z,10.52
2023-04-16T07:39:32.679Z,11.38
2023-04-16T07:44:31.748Z,10.25
2023-04-16T07:47:01.619Z,10.50
2023-04-16T07:49:32.202Z,11.17
2023-04-16T07:52:01.430Z,10.15
2023-04-16T07:58:52.786Z,10.27
2023-04-16T08:01:23.212Z,10.55
2023-04-16T08:03:53.130Z,10.43
2023-04-16T08:06:22.144Z,11.98
2023-04-16T08:08:51.137Z,11.00
2023-04-16T08:11:20.272Z,11.30
2023-04-16T08:13:49.333Z,10.88
2023-04-16T08:16:18.452Z,11.73
2023-04-16T08:18:47.833Z,10.90
2023-04-16T08:21:17.096Z,11.45
2023-04-16T08:23:46.463Z,10.73
2023-04-16T08:26:15.883Z,10.63
2023-04-16T08:28:44.912Z,11.80
2023-04-16T08:31:14.183Z,12.23
2023-04-16T08:33:43.349Z,12.70
2023-04-16T08:36:12.614Z,11.98
2023-04-16T08:38:41.665Z,12.60
2023-04-16T08:41:14.096Z,13.35
2023-04-16T08:43:46.710Z,14.38
2023-04-16T08:46:18.752Z,16.20
2023-04-16T08:48:54.474Z,13.75
2023-04-16T08:51:25.332Z,14.77
2023-04-16T08:54:01.112Z,16.52
2023-04-16T08:56:32.028Z,17.60
2023-04-16T08:59:06.117Z,13.70
2023-04-16T09:01:36.586Z,15.07
2023-04-16T09:04:08.670Z,15.60
2023-04-16T09:06:38.951Z,16.63
2023-04-16T09:09:09.359Z,14.75
2023-04-16T09:11:40.655Z,14.60
2023-04-16T09:14:12.901Z,14.73
2023-04-16T09:16:43.081Z,15.27
2023-04-16T09:19:12.662Z,15.85
2023-04-16T09:21:43.238Z,13.45
2023-04-16T09:24:12.951Z,13.73
2023-04-16T09:26:46.550Z,13.18
2023-04-16T09:29:38.520Z,13.40
2023-04-16T09:32:12.806Z,12.05
2023-04-16T09:35:00.138Z,10.80
2023-04-16T09:37:31.262Z,15.98
2023-04-16T09:40:03.069Z,14.07
2023-04-16T09:42:37.941Z,12.88
2023-04-16T09:45:07.767Z,15.13
2023-04-16T09:47:44.820Z,14.45
2023-04-16T09:50:21.829Z,16.45
2023-04-16T09:52:52.323Z,15.10
2023-04-16T09:55:29.028Z,12.15
2023-04-16T09:58:02.576Z,10.90
2023-04-16T10:00:35.052Z,12.23
2023-04-16T10:03:11.810Z,13.25
2023-04-16T10:05:41.099Z,10.40
2023-04-16T10:08:16.002Z,9.80
2023-04-16T10:10:45.817Z,9.05
2023-04-16T10:13:18.455Z,11.93
2023-04-16T10:15:48.130Z,12.43
2023-04-16T10:22:39.593Z,9.15
2023-04-16T10:25:09.991Z,8.93
2023-04-16T10:27:39.964Z,10.50
2023-04-16T10:30:10.691Z,12.32
2023-04-16T10:32:40.610Z,10.80
2023-04-16T10:35:10.113Z,9.30
2023-04-16T10:37:42.424Z,9.07
2023-04-16T10:43:00.843Z,9.05
2023-04-16T10:45:56.485Z,8.23
2023-04-16T10:48:30.924Z,8.38
2023-04-16T10:51:07.813Z,8.30
2023-04-16T10:53:39.028Z,9.80
2023-04-16T10:56:07.999Z,9.57
2023-04-16T10:58:38.329Z,9.88
2023-04-16T11:01:14.979Z,8.82
2023-04-16T11:03:50.864Z,8.82
2023-04-16T11:06:27.130Z,9.07
2023-04-16T11:08:56.754Z,9.75
2023-04-16T11:11:25.768Z,9.45
2023-04-16T11:13:58.117Z,8.80
2023-04-16T11:16:27.624Z,9.98
2023-04-16T11:18:57.981Z,11.57
2023-04-16T11:21:28.233Z,10.40
2023-04-16T11:23:59.900Z,10.13
2023-04-16T11:26:32.181Z,10.32
2023-04-16T11:33:28.394Z,11.80
2023-04-16T11:36:01.850Z,12.10
2023-04-16T11:38:44.196Z,12.23
2023-04-16T11:41:20.524Z,11.90
2023-04-16T11:43:49.655Z,12.90
2023-04-16T11:46:27.277Z,13.13
2023-04-16T11:48:57.289Z,14.52
2023-04-16T11:51:26.605Z,17.90
2023-04-16T11:53:57.138Z,18.92
2023-04-16T11:56:31.904Z,12.70
2023-04-16T11:59:17.548Z,9.85
2023-04-16T12:01:52.872Z,10.40
2023-04-16T12:04:26.831Z,11.15
2023-04-16T12:07:08.772Z,12.77
2023-04-16T12:09:40.798Z,14.48
2023-04-16T12:12:32.543Z,10.95
2023-04-16T12:15:06.740Z,13.10
2023-04-16T12:17:37.757Z,12.82
2023-04-16T12:20:12.869Z,11.43
2023-04-16T12:22:46.103Z,10.98
2023-04-16T12:25:26.170Z,10.48
2023-04-16T12:27:57.565Z,10.27
2023-04-16T12:30:27.860Z,11.50
2023-04-16T12:37:18.818Z,10.55
2023-04-16T12:39:48.177Z,30.10
2023-04-16T12:42:17.459Z,10.68
2023-04-16T12:44:46.702Z,10.95
2023-04-16T12:47:16.103Z,11.02
2023-04-16T12:49:45.805Z,11.00
2023-04-16T12:52:14.868Z,11.57
2023-04-16T12:54:44.196Z,12.55
2023-04-16T12:57:13.549Z,11.60
2023-04-16T12:59:42.832Z,11.73
2023-04-16T13:02:12.222Z,10.90
2023-04-16T13:04:41.442Z,10.50
2023-04-16T13:07:10.803Z,11.25
2023-04-16T13:09:40.604Z,9.52
2023-04-16T13:12:09.823Z,12.70
2023-04-16T13:14:40.112Z,14.20
2023-04-16T13:17:09.358Z,12.73
2023-04-16T13:19:38.457Z,13.90
2023-04-16T13:22:07.868Z,14.52
2023-04-16T13:24:36.927Z,10.40
2023-04-16T13:27:06.904Z,12.13
2023-04-16T13:29:39.452Z,9.93
2023-04-16T13:32:08.804Z,8.20
2023-04-16T13:34:38.148Z,13.07
2023-04-16T13:37:08.048Z,11.60
2023-04-16T13:39:37.121Z,9.70
2023-04-16T13:42:06.619Z,9.80
2023-04-16T13:44:35.812Z,8.63
2023-04-16T13:47:05.289Z,12.07
2023-04-16T13:49:36.341Z,9.38
2023-04-16T13:52:05.911Z,9.60
2023-04-16T13:54:34.796Z,10.07
2023-04-16T13:57:04.131Z,10.88
2023-04-16T13:59:33.665Z,10.18
2023-04-16T14:02:03.369Z,13.02
2023-04-16T14:04:32.673Z,9.68
2023-04-16T14:07:02.272Z,9.80
2023-04-16T14:09:31.689Z,10.73
2023-04-16T14:12:00.975Z,10.20
2023-04-16T14:14:30.246Z,15.40
2023-04-16T14:17:04.261Z,17.20
2023-04-16T14:19:33.618Z,20.20
2023-04-16T14:22:02.667Z,23.23
2023-04-16T14:24:31.834Z,23.13
2023-04-16T14:27:01.030Z,22.90
2023-04-16T14:29:30.322Z,22.42
2023-04-16T14:31:59.337Z,23.38
2023-04-16T14:34:28.800Z,19.33
2023-04-16T14:36:57.974Z,15.93
2023-04-16T14:39:27.422Z,14.25
2023-04-16T14:41:56.732Z,11.05
2023-04-16T14:44:25.686Z,11.63
2023-04-16T14:46:55.005Z,12.70
2023-04-16T14:49:24.149Z,12.30
2023-04-16T14:51:53.604Z,13.55
2023-04-16T14:54:23.242Z,14.05
2023-04-16T14:56:52.375Z,17.67
2023-04-16T14:59:21.504Z,18.08
2023-04-16T15:01:50.530Z,20.10
2023-04-16T15:04:20.109Z,22.48
2023-04-16T15:06:50.317Z,26.10
2023-04-16T15:09:19.410Z,26.80
2023-04-16T15:11:48.537Z,24.08
2023-04-16T15:14:17.877Z,22.95
2023-04-16T15:16:48.027Z,22.02
2023-04-16T15:19:17.591Z,15.93
2023-04-16T15:21:48.739Z,15.00
2023-04-16T15:24:18.254Z,13.98
2023-04-16T15:26:47.325Z,14.32
2023-04-16T15:29:16.751Z,77.97
2023-04-16T15:31:46.109Z,13.35
2023-04-16T15:34:15.065Z,9.10
2023-04-16T15:36:44.207Z,11.30
2023-04-16T15:39:13.559Z,10.38
2023-04-16T15:41:57.523Z,12.60
2023-04-16T15:44:31.283Z,11.70
2023-04-16T15:47:01.427Z,8.93
2023-04-16T15:49:30.840Z,8.07
2023-04-16T15:51:59.861Z,14.25
2023-04-16T15:54:28.921Z,8.95
2023-04-16T15:56:59.856Z,9.20
2023-04-16T15:59:29.067Z,7.72
2023-04-16T16:01:58.300Z,8.85
2023-04-16T16:04:29.405Z,8.40
2023-04-16T16:06:58.856Z,8.80
2023-04-16T16:09:28.868Z,8.65
2023-04-16T16:12:00.826Z,9.18
2023-04-16T16:14:30.069Z,9.13
2023-04-16T16:16:59.203Z,8.57
2023-04-16T16:19:28.456Z,9.35
2023-04-16T16:21:57.653Z,10.68
2023-04-16T16:24:27.760Z,8.73
2023-04-16T16:26:57.798Z,9.20
2023-04-16T16:29:26.949Z,9.23
2023-04-16T16:31:56.293Z,13.50
2023-04-16T16:34:25.424Z,12.35
2023-04-16T16:36:54.642Z,13.70
2023-04-16T16:39:25.461Z,14.57
2023-04-16T16:41:54.879Z,12.60
2023-04-16T16:44:24.272Z,12.13
2023-04-16T16:46:53.208Z,12.18
2023-04-16T16:49:22.494Z,10.88
2023-04-16T16:51:51.934Z,12.32
2023-04-16T16:54:21.043Z,11.52
2023-04-16T16:56:52.652Z,10.57
2023-04-16T16:59:21.815Z,10.73
2023-04-16T17:01:51.106Z,10.35
2023-04-16T17:04:20.516Z,11.15
2023-04-16T17:06:49.884Z,10.88
2023-04-16T17:09:19.232Z,10.88
2023-04-16T17:11:48.396Z,11.93
2023-04-16T17:14:17.586Z,13.23
2023-04-16T17:16:50.933Z,15.60
2023-04-16T17:19:20.271Z,11.25
2023-04-16T17:21:49.410Z,10.10
2023-04-16T17:24:19.230Z,10.05
2023-04-16T17:26:49.117Z,9.32
2023-04-16T17:29:18.268Z,9.63
2023-04-16T17:31:47.475Z,8.95
2023-04-16T17:34:16.857Z,10.30
2023-04-16T17:36:47.876Z,8.18
2023-04-16T17:39:17.351Z,9.45
2023-04-16T17:41:46.698Z,9.40
2023-04-16T17:44:16.240Z,10.65
2023-04-16T17:46:45.814Z,12.85
2023-04-16T17:49:14.866Z,14.70
2023-04-16T17:51:45.551Z,11.23
2023-04-16T17:54:14.990Z,17.20
2023-04-16T17:56:43.867Z,45.22
2023-04-16T17:59:13.220Z,125.40
2023-04-16T18:01:42.775Z,57.25
2023-04-16T18:04:12.357Z,92.13
2023-04-16T18:06:42.286Z,73.35
2023-04-16T18:09:11.216Z,22.65
2023-04-16T18:11:40.441Z,13.05
2023-04-16T18:14:10.985Z,10.85
2023-04-16T18:16:40.615Z,13.88
2023-04-16T18:19:09.635Z,34.90
2023-04-16T18:21:38.821Z,20.98
2023-04-16T18:24:08.605Z,13.07
2023-04-16T18:26:37.788Z,70.20
2023-04-16T18:29:07.170Z,59.80
2023-04-16T18:31:36.631Z,20.05
2023-04-16T18:34:06.445Z,10.02
2023-04-16T18:36:35.987Z,10.57
2023-04-16T18:39:05.109Z,57.00
2023-04-16T18:41:34.223Z,23.45
2023-04-16T18:44:03.557Z,10.90
2023-04-16T18:46:32.889Z,25.42
2023-04-16T18:49:02.374Z,35.40
2023-04-16T18:51:31.845Z,33.53
2023-04-16T18:54:01.527Z,31.60
2023-04-16T18:56:33.350Z,20.33
2023-04-16T18:59:03.411Z,18.60
2023-04-16T19:01:32.493Z,14.70
2023-04-16T19:04:02.699Z,13.93
2023-04-16T19:06:32.895Z,14.73
2023-04-16T19:09:02.411Z,14.93
2023-04-16T19:11:31.634Z,11.43
2023-04-16T19:14:03.184Z,12.25
2023-04-16T19:16:32.959Z,11.20
2023-04-16T19:19:02.382Z,18.45
2023-04-16T19:21:31.913Z,16.08
2023-04-16T19:24:01.210Z,13.32
2023-04-16T19:26:30.252Z,15.38
2023-04-16T19:28:59.469Z,13.85
2023-04-16T19:31:28.980Z,15.02
2023-04-16T19:33:58.073Z,16.23
2023-04-16T19:36:27.452Z,16.77
2023-04-16T19:38:56.789Z,17.83
2023-04-16T19:41:25.886Z,21.38
2023-04-16T19:43:56.813Z,20.30
2023-04-16T19:46:26.055Z,22.73
2023-04-16T19:48:54.965Z,21.92
2023-04-16T19:51:24.761Z,23.15
2023-04-16T19:53:54.690Z,21.73
2023-04-16T19:56:23.839Z,22.92
2023-04-16T19:58:53.211Z,20.98
2023-04-16T20:01:23.415Z,20.73
2023-04-16T20:03:53.177Z,22.02
2023-04-16T20:06:23.501Z,21.58
2023-04-16T20:08:53.952Z,21.63
2023-04-16T20:11:23.756Z,22.17
2023-04-16T20:13:54.221Z,21.67
2023-04-16T20:16:24.878Z,27.33
2023-04-16T20:18:58.470Z,28.52
2023-04-16T20:21:29.654Z,26.88
2023-04-16T20:24:03.256Z,25.27
2023-04-16T20:26:35.184Z,26.13
2023-04-16T20:29:05.155Z,25.88
2023-04-16T20:31:37.785Z,26.65
2023-04-16T20:34:09.917Z,23.55
2023-04-16T20:36:41.438Z,23.23
2023-04-16T20:39:13.554Z,24.15
2023-04-16T20:41:46.770Z,23.95
2023-04-16T20:44:21.048Z,32.05
2023-04-16T20:46:56.469Z,45.60
2023-04-16T20:49:29.710Z,69.53
2023-04-16T20:52:01.770Z,66.38
2023-04-16T20:57:05.378Z,87.25
2023-04-16T20:59:40.002Z,86.90
2023-04-16T21:02:11.797Z,81.57
2023-04-16T21:04:45.010Z,69.70
2023-04-16T21:07:17.421Z,62.63
2023-04-16T21:09:49.945Z,61.10
2023-04-16T21:12:22.800Z,56.65
2023-04-16T21:14:54.937Z,53.08
2023-04-16T21:17:27.550Z,53.90
2023-04-16T21:20:00.703Z,57.47
2023-04-16T21:22:32.820Z,50.92
2023-04-16T21:25:04.849Z,47.13
2023-04-16T21:27:36.573Z,48.42
2023-04-16T21:30:09.344Z,48.60
2023-04-16T21:32:42.151Z,50.90
2023-04-16T21:35:15.322Z,38.22
2023-04-16T21:37:46.591Z,34.13
2023-04-16T21:40:19.490Z,28.65
2023-04-16T21:42:51.392Z,30.20
2023-04-16T21:45:23.263Z,30.10
2023-04-16T21:47:57.121Z,28.38
2023-04-16T21:50:28.778Z,29.05
2023-04-16T21:53:00.776Z,29.23
2023-04-16T21:55:33.283Z,33.17
2023-04-16T21:58:06.140Z,34.47
2023-04-16T22:00:37.488Z,31.40
2023-04-16T22:03:11.597Z,26.48
2023-04-16T22:05:45.114Z,32.20
2023-04-16T22:08:24.705Z,41.72
2023-04-16T22:11:02.087Z,42.05
2023-04-16T22:13:38.910Z,41.35
2023-04-16T22:16:11.769Z,40.40
2023-04-16T22:18:45.095Z,39.50
2023-04-16T22:21:17.076Z,39.45
2023-04-16T22:23:49.188Z,37.90
2023-04-16T22:26:21.717Z,36.75
2023-04-16T22:28:53.786Z,35.25
2023-04-16T22:31:26.474Z,36.92
2023-04-16T22:34:00.940Z,44.35
2023-04-16T22:36:35.275Z,87.43
2023-04-16T22:39:11.635Z,32.67
2023-04-16T22:41:43.413Z,31.98
2023-04-16T22:44:15.288Z,32.30
2023-04-16T22:46:48.814Z,31.50
2023-04-16T22:49:20.055Z,31.05
2023-04-16T22:51:52.581Z,30.25
2023-04-16T22:54:25.405Z,31.10
2023-04-16T22:56:59.031Z,30.13
2023-04-16T22:59:31.848Z,30.80
2023-04-16T23:02:03.818Z,26.17
2023-04-16T23:04:37.029Z,27.33
2023-04-16T23:07:09.922Z,24.13
2023-04-16T23:09:42.694Z,23.85
2023-04-16T23:12:17.691Z,21.40
2023-04-16T23:14:50.405Z,21.95
2023-04-16T23:17:21.616Z,20.08
2023-04-16T23:19:54.410Z,19.05
2023-04-16T23:22:27.043Z,17.65
2023-04-16T23:25:00.298Z,15.80
2023-04-16T23:27:33.661Z,16.52
2023-04-16T23:30:07.634Z,18.75
2023-04-16T23:32:39.712Z,17.02
2023-04-16T23:37:44.962Z,15.27
2023-04-16T23:40:18.694Z,16.33
2023-04-16T23:42:50.679Z,14.18
2023-04-16T23:45:23.345Z,19.98
2023-04-16T23:50:28.824Z,15.30
2023-04-16T23:53:00.478Z,16.48
2023-04-16T23:55:34.094Z,13.57
2023-04-16T23:58:06.094Z,13.32
